Latest Weather Observations for Adelaide Airport

IDS60901

Issued at 2:31 pm CST Tuesday 23 May 2017 (issued every 10 minutes, with the page automatically refreshed every 10 minutes)

About weather observations | Map of Adelaide area stations | Latest observations for Adelaide area | Other Formats
Station Details ID: 023034 Name: ADELAIDE AIRPORT Lat: -34.95 Lon: 138.52 Height: 2.0 m
Data from the previous 72 hours. | See also: Recent months at Adelaide Airport
Date/Time
CST
Temp
°C
App
Temp
°C
Dew
Point
°C
Rel
Hum
%
Delta-T
°C
Wind Press
QNH
hPa
Press
MSL
hPa
Rain since
9am
mm
Dir  Spd
km/h
Gust
km/h
Spd
kts
Gust
kts
23/02:00pm 17.7 12.4 9.7 59 4.2 NW 28 35 15 19 1015.6 1015.6 0.0
23/01:30pm 18.3 13.5 11.7 65 3.6 NNW 28 35 15 19 1015.8 1015.8 0.0
23/01:00pm 18.1 13.5 12.3 69 3.2 NNW 28 35 15 19 1016.1 1016.1 0.0
23/12:30pm 17.2 12.9 13.3 78 2.2 NNW 28 33 15 18 1016.4 1016.4 0.0
23/12:00pm 17.4 13.4 12.9 75 2.5 NW 26 35 14 19 1016.7 1016.7 0.0
23/11:30am 17.7 13.7 11.9 69 3.2 NW 24 32 13 17 1017.2 1017.2 0.0
23/11:00am 17.3 15.3 12.8 75 2.5 N 15 20 8 11 1017.5 1017.5 0.0
23/10:30am 15.2 13.0 13.4 89 1.0 N 17 24 9 13 1017.8 1017.8 0.0
23/10:18am 14.7 12.6 13.6 93 0.6 N 17 22 9 12 1017.9 1017.9 0.0
23/10:00am 14.0 11.9 13.5 97 0.3 NNE 17 24 9 13 1018.1 1018.1 0.0
23/09:54am 13.6 11.4 13.4 99 0.1 NNE 17 22 9 12 1018.1 1018.1 0.0
23/09:45am 13.5 11.7 13.3 99 0.1 NNE 15 20 8 11 1018.1 1018.1 0.0
23/09:30am 13.1 11.5 12.9 99 0.1 NNE 13 19 7 10 1018.2 1018.2 0.0
23/09:18am 13.1 11.2 13.1 100 0.0 N 15 17 8 9 1018.2 1018.2 0.0
23/09:00am 13.0 11.0 12.8 99 0.1 NNE 15 19 8 10 1018.1 1018.1 1.2
23/08:43am 13.0 11.0 12.8 99 0.1 NNE 15 17 8 9 1017.9 1017.9 1.2
23/08:30am 12.9 10.9 12.7 99 0.1 NNE 15 19 8 10 1017.8 1017.8 1.2
23/08:00am 12.7 10.6 12.5 99 0.1 NE 15 17 8 9 1017.2 1017.2 1.2
23/07:30am 12.4 10.6 12.2 99 0.1 NE 13 17 7 9 1017.4 1017.4 1.2
23/07:20am 12.2 10.4 12.0 99 0.1 NE 13 17 7 9 1017.0 1017.0 1.2
23/07:00am 12.0 9.6 11.4 96 0.3 NE 15 19 8 10 1017.2 1017.2 1.2
23/06:53am 11.5 9.1 11.3 99 0.1 NE 15 19 8 10 1017.2 1017.2 1.2
23/06:44am 11.5 9.4 11.3 99 0.1 NE 13 17 7 9 1017.2 1017.2 1.2
23/06:30am 11.8 9.7 11.2 96 0.3 NE 13 15 7 8 1017.2 1017.2 1.2
23/06:00am 12.0 10.0 11.6 97 0.2 NE 13 15 7 8 1016.8 1016.8 1.2
23/05:30am 12.5 11.0 11.9 96 0.3 NE 11 13 6 7 1016.9 1016.9 1.2
23/05:00am 12.5 11.3 11.7 95 0.4 NNE 9 11 5 6 1016.7 1016.7 1.2
23/04:30am 12.6 11.1 12.0 96 0.3 NE 11 13 6 7 1016.2 1016.2 1.2
23/04:00am 12.8 11.0 12.2 96 0.3 NNE 13 13 7 7 1016.2 1016.2 1.2
23/03:30am 13.5 12.7 12.8 95 0.4 NNE 9 11 5 6 1016.3 1016.3 1.2
23/03:00am 13.2 11.9 12.6 96 0.3 NNE 11 15 6 8 1016.5 1016.5 1.2
23/02:30am 13.4 12.5 12.5 94 0.5 NE 9 11 5 6 1016.3 1016.3 1.2
23/02:00am 15.8 15.8 13.7 87 1.2 NNE 6 7 3 4 1016.3 1016.3 1.2
23/01:30am 16.0 16.0 13.5 85 1.4 NNW 6 11 3 6 1016.4 1016.4 1.2
23/01:00am 15.2 14.3 13.8 91 0.8 N 11 17 6 9 1016.4 1016.4 1.2
23/12:30am 14.9 13.9 13.5 91 0.8 NNE 11 13 6 7 1016.6 1016.6 1.2
23/12:00am 14.8 13.8 13.5 92 0.7 NE 11 13 6 7 1016.4 1016.4 1.2
 
Date/Time
CST
Temp
°C
App
Temp
°C
Dew
Point
°C
Rel
Hum
%
Delta-T
°C
Wind Press
QNH
hPa
Press
MSL
hPa
Rain since
9am
mm
Dir  Spd
km/h
Gust
km/h
Spd
kts
Gust
kts
22/11:30pm 15.6 14.6 13.5 87 1.2 NE 11 13 6 7 1016.5 1016.5 1.2
22/11:00pm 15.9 14.3 13.8 87 1.2 NNE 15 19 8 10 1016.5 1016.5 1.2
22/10:30pm 16.3 15.4 13.6 84 1.5 NNW 11 15 6 8 1016.4 1016.4 1.2
22/10:00pm 16.4 14.7 13.6 83 1.6 N 15 20 8 11 1016.4 1016.4 1.2
22/09:30pm 16.7 14.6 13.5 81 1.8 NW 17 24 9 13 1016.2 1016.2 1.2
22/09:18pm 16.4 15.2 13.9 85 1.4 NW 13 17 7 9 1016.0 1016.0 1.2
22/09:00pm 16.4 14.7 13.7 84 1.5 NNW 15 19 8 10 1015.8 1015.8 1.2
22/08:30pm 15.9 15.3 13.6 86 1.3 NW 9 13 5 7 1015.3 1015.3 1.0
22/08:00pm 17.6 13.9 11.5 67 3.3 NNW 22 30 12 16 1015.1 1015.1 0.0
22/07:30pm 18.8 14.5 9.3 54 5.0 NNW 22 30 12 16 1014.8 1014.8 0.0
22/07:00pm 19.2 14.3 8.6 50 5.5 N 24 33 13 18 1014.4 1014.4 0.0
22/06:30pm 19.4 15.3 8.7 50 5.6 N 20 26 11 14 1014.1 1014.1 0.0
22/06:00pm 19.4 13.8 8.7 50 5.6 N 28 39 15 21 1013.7 1013.7 0.0
22/05:30pm 19.3 13.3 8.8 50 5.5 N 30 41 16 22 1013.5 1013.5 0.0
22/05:00pm 19.4 15.6 8.9 50 5.5 N 19 32 10 17 1013.2 1013.2 0.0
22/04:30pm 18.6 16.5 11.3 62 4.0 NNW 13 15 7 8 1013.3 1013.3 0.0
22/04:00pm 18.7 16.1 10.7 59 4.3 N 15 19 8 10 1012.8 1012.8 0.0
22/03:30pm 20.2 15.7 7.0 42 6.7 NNE 20 28 11 15 1012.0 1012.0 0.0
22/03:00pm 20.0 15.5 7.0 43 6.6 N 20 28 11 15 1011.5 1011.5 0.0
22/02:30pm 19.7 14.9 7.3 44 6.3 NNE 22 32 12 17 1011.6 1011.6 0.0
22/02:00pm 19.1 14.6 8.5 50 5.5 NNE 22 30 12 16 1011.6 1011.6 0.0
22/01:30pm 19.1 14.8 7.8 48 5.8 N 20 28 11 15 1012.6 1012.6 0.0
22/01:00pm 17.8 13.7 10.1 60 4.1 NE 22 30 12 16 1012.6 1012.6 0.0
22/12:30pm 18.3 12.7 8.6 53 5.0 NNE 28 37 15 20 1013.8 1013.8 0.0
22/12:00pm 19.0 13.3 6.6 44 6.2 NE 26 37 14 20 1014.6 1014.6 0.0
22/11:30am 18.6 12.9 6.8 46 5.9 NNE 26 32 14 17 1015.2 1015.2 0.0
22/11:00am 18.9 12.6 5.6 41 6.5 NNE 28 37 15 20 1014.7 1014.7 0.0
22/10:30am 19.4 14.3 5.8 41 6.7 N 22 30 12 16 1015.5 1015.5 0.0
22/10:00am 18.6 14.7 5.5 42 6.4 NNE 15 20 8 11 1014.8 1014.8 0.0
22/09:30am 18.4 12.1 5.7 43 6.2 NE 28 37 15 20 1014.9 1014.9 0.0
22/09:00am 18.8 14.3 6.0 43 6.3 NNE 19 28 10 15 1016.1 1016.1 0.0
22/08:30am 17.5 13.3 5.8 46 5.7 N 17 22 9 12 1016.3 1016.3 0.0
22/08:00am 17.6 13.0 5.6 45 5.8 NE 19 26 10 14 1015.7 1015.7 0.0
22/07:30am 16.8 12.2 5.6 47 5.4 NE 19 26 10 14 1014.4 1014.4 0.0
22/07:00am 15.7 11.5 5.9 52 4.7 NE 17 24 9 13 1014.4 1014.4 0.0
22/06:30am 14.9 11.2 6.2 56 4.2 NE 15 17 8 9 1014.6 1014.6 0.0
22/06:00am 14.9 10.8 6.2 56 4.2 NE 17 20 9 11 1014.5 1014.5 0.0
22/05:30am 15.0 10.5 6.0 55 4.3 NE 19 26 10 14 1014.4 1014.4 0.0
22/05:00am 14.1 9.7 6.6 60 3.6 NE 19 26 10 14 1014.4 1014.4 0.0
22/04:30am 13.0 9.0 6.5 64 3.1 NE 17 19 9 10 1014.8 1014.8 0.0
22/04:00am 13.0 9.3 6.5 64 3.1 NE 15 19 8 10 1015.0 1015.0 0.0
22/03:30am 13.8 9.4 6.5 61 3.5 NE 19 20 10 11 1015.1 1015.1 0.0
22/03:00am 14.4 10.3 6.3 58 3.9 NE 17 19 9 10 1015.4 1015.4 0.0
22/02:30am 13.1 9.1 6.6 64 3.1 NE 17 20 9 11 1015.6 1015.6 0.0
22/02:00am 12.5 8.6 7.1 69 2.6 NE 17 19 9 10 1015.8 1015.8 0.0
22/01:30am 12.8 9.3 7.2 69 2.7 NE 15 19 8 10 1015.9 1015.9 0.0
22/01:00am 13.1 9.2 7.3 68 2.8 NE 17 19 9 10 1016.1 1016.1 0.0
22/12:30am 13.2 9.5 7.9 70 2.6 NE 17 17 9 9 1016.3 1016.3 0.0
22/12:00am 14.1 10.3 7.6 65 3.2 NE 17 19 9 10 1016.4 1016.4 0.0
 
Date/Time
CST
Temp
°C
App
Temp
°C
Dew
Point
°C
Rel
Hum
%
Delta-T
°C
Wind Press
QNH
hPa
Press
MSL
hPa
Rain since
9am
mm
Dir  Spd
km/h
Gust
km/h
Spd
kts
Gust
kts
21/11:30pm 13.5 9.3 7.6 67 2.9 NE 19 20 10 11 1016.5 1016.5 0.0
21/11:00pm 14.9 11.2 7.9 63 3.5 NE 17 17 9 9 1016.7 1016.7 0.0
21/10:30pm 14.8 11.1 8.0 64 3.4 NE 17 19 9 10 1016.6 1016.6 0.0
21/10:00pm 14.9 11.7 8.3 64 3.3 NE 15 19 8 10 1016.7 1016.7 0.0
21/09:30pm 14.6 11.4 8.4 66 3.1 NE 15 17 8 9 1016.8 1016.8 0.0
21/09:00pm 13.5 11.1 8.7 73 2.4 NE 11 15 6 8 1016.9 1016.9 0.0
21/08:30pm 13.4 11.4 8.6 73 2.4 ENE 9 11 5 6 1016.9 1016.9 0.0
21/08:00pm 14.5 12.6 9.0 69 2.8 NE 9 11 5 6 1016.8 1016.8 0.0
21/07:30pm 15.0 13.0 8.7 66 3.2 NE 9 11 5 6 1016.8 1016.8 0.0
21/07:00pm 15.5 13.4 8.4 62 3.6 ENE 9 13 5 7 1016.5 1016.5 0.0
21/06:30pm 15.8 13.8 8.5 62 3.7 NE 9 11 5 6 1016.3 1016.3 0.0
21/06:00pm 16.8 14.7 8.4 57 4.3 NE 9 9 5 5 1016.0 1016.0 0.0
21/05:30pm 18.0 16.7 9.9 59 4.3 N 7 9 4 5 1015.9 1015.9 0.0
21/05:00pm 20.1 17.9 7.9 45 6.3 NNW 9 11 5 6 1015.8 1015.8 0.0
21/04:30pm 20.8 18.5 7.6 42 6.8 NW 9 11 5 6 1015.8 1015.8 0.0
21/04:00pm 20.9 17.9 7.7 42 6.8 NW 13 17 7 9 1015.8 1015.8 0.0
21/03:30pm 21.2 17.8 7.7 41 7.0 NW 15 19 8 10 1015.8 1015.8 0.0
21/03:00pm 21.3 18.0 8.1 42 6.9 NW 15 19 8 10 1015.7 1015.7 0.0
21/02:30pm 21.2 18.0 8.4 43 6.7 NW 15 20 8 11 1015.8 1015.8 0.0
21/02:00pm 21.0 17.2 8.9 46 6.4 NW 19 26 10 14 1016.0 1016.0 0.0
21/01:30pm 21.2 17.3 8.7 44 6.6 WNW 19 26 10 14 1016.0 1016.0 0.0
21/01:00pm 21.4 17.2 8.4 43 6.8 NW 20 26 11 14 1016.3 1016.3 0.0
21/12:30pm 21.2 17.2 8.4 43 6.7 N 19 28 10 15 1016.4 1016.4 0.0
21/12:00pm 21.6 17.8 9.0 44 6.7 N 19 26 10 14 1016.9 1016.9 0.0
21/11:30am 21.1 16.7 9.0 46 6.4 N 22 28 12 15 1017.3 1017.3 0.0
21/11:00am 20.3 16.2 8.6 47 6.1 N 20 30 11 16 1017.8 1017.8 0.0
21/10:30am 20.0 16.2 9.0 49 5.8 NNE 19 26 10 14 1018.0 1018.0 0.0
21/10:00am 18.9 15.1 8.9 52 5.2 NNE 19 26 10 14 1018.1 1018.1 0.0
21/09:30am 18.0 14.5 8.9 55 4.7 NNE 17 24 9 13 1018.1 1018.1 0.0
21/09:00am 17.1 14.1 9.2 59 4.1 NE 15 19 8 10 1018.1 1018.1 0.0
21/08:30am 15.7 12.7 9.3 65 3.3 NE 15 19 8 10 1017.9 1017.9 0.0
21/08:00am 13.4 10.4 9.3 76 2.1 NE 15 17 8 9 1017.5 1017.5 0.0
21/07:30am 11.3 8.1 8.4 82 1.4 NE 15 17 8 9 1017.3 1017.3 0.0
21/07:00am 10.5 7.6 8.0 84 1.2 NE 13 15 7 8 1016.9 1016.9 0.0
21/06:30am 11.1 7.9 8.4 83 1.3 NE 15 19 8 10 1016.8 1016.8 0.0
21/06:00am 11.5 9.1 8.7 83 1.4 NE 11 15 6 8 1016.4 1016.4 0.0
21/05:30am 11.6 9.2 8.6 82 1.5 NE 11 13 6 7 1016.4 1016.4 0.0
21/05:00am 11.0 8.1 8.1 82 1.4 NE 13 15 7 8 1016.2 1016.2 0.0
21/04:30am 11.7 9.2 8.2 79 1.7 ENE 11 13 6 7 1016.1 1016.1 0.0
21/04:00am 11.5 9.4 8.2 80 1.6 NE 9 11 5 6 1016.2 1016.2 0.0
21/03:30am 10.7 8.5 7.8 82 1.4 NE 9 9 5 5 1015.9 1015.9 0.0
21/03:00am 13.1 10.8 8.9 75 2.1 NNE 11 11 6 6 1016.0 1016.0 0.0
21/02:30am 13.4 10.2 8.6 73 2.4 NNE 15 15 8 8 1016.1 1016.1 0.0
21/02:00am 13.8 10.6 8.6 71 2.6 NNE 15 17 8 9 1016.1 1016.1 0.0
21/01:30am 13.6 10.1 8.6 72 2.5 NNE 17 19 9 10 1016.1 1016.1 0.0
21/01:00am 13.8 11.1 8.8 72 2.5 NNE 13 17 7 9 1016.3 1016.3 0.0
21/12:30am 14.3 10.9 9.0 70 2.7 NNE 17 19 9 10 1016.4 1016.4 0.0
21/12:00am 14.4 10.9 8.9 69 2.8 NNE 17 19 9 10 1016.3 1016.3 0.0
 
Date/Time
CST
Temp
°C
App
Temp
°C
Dew
Point
°C
Rel
Hum
%
Delta-T
°C
Wind Press
QNH
hPa
Press
MSL
hPa
Rain since
9am
mm
Dir  Spd
km/h
Gust
km/h
Spd
kts
Gust
kts
20/11:30pm 14.5 11.8 8.8 68 2.9 NNE 13 17 7 9 1016.4 1016.4 0.0
20/11:00pm 14.7 12.0 8.8 68 3.0 NNE 13 15 7 8 1016.3 1016.3 0.0
20/10:30pm 14.2 11.1 8.9 70 2.7 NE 15 19 8 10 1016.2 1016.2 0.0
20/10:00pm 14.0 11.2 8.6 70 2.7 NE 13 17 7 9 1016.2 1016.2 0.0
20/09:30pm 15.9 14.1 9.3 65 3.4 NNE 9 13 5 7 1016.1 1016.1 0.0
20/09:00pm 16.7 14.5 9.4 62 3.8 N 11 15 6 8 1016.0 1016.0 0.0
20/08:30pm 16.7 14.3 10.0 64 3.5 NNE 13 15 7 8 1015.9 1015.9 0.0
20/08:00pm 17.1 15.5 10.3 64 3.6 NNE 9 13 5 7 1015.8 1015.8 0.0
20/07:30pm 17.5 15.4 9.7 60 4.1 NNE 11 15 6 8 1015.4 1015.4 0.0
20/07:00pm 18.3 16.2 9.8 57 4.5 NNE 11 13 6 7 1015.1 1015.1 0.0
20/06:30pm 18.2 16.2 10.1 59 4.3 N 11 13 6 7 1014.7 1014.7 0.0
20/06:00pm 18.0 15.9 11.0 63 3.8 NNW 13 17 7 9 1014.4 1014.4 0.0
20/05:30pm 18.7 16.2 9.8 56 4.7 NNW 13 17 7 9 1014.1 1014.1 0.0
20/05:00pm 18.9 16.1 9.9 56 4.8 NNW 15 19 8 10 1013.9 1013.9 0.0
20/04:30pm 18.7 15.7 10.5 59 4.4 NNW 17 24 9 13 1013.9 1013.9 0.0
20/04:00pm 19.3 15.7 10.4 56 4.8 NNW 20 26 11 14 1013.8 1013.8 0.0
20/03:30pm 19.7 15.9 9.8 52 5.3 NNW 20 28 11 15 1013.8 1013.8 0.0
20/03:00pm 19.8 16.2 10.6 55 5.0 NNW 20 26 11 14 1013.8 1013.8 0.0

Latest Capital City Observations: Canberra | Sydney | Melbourne | Brisbane | Adelaide | Perth | Hobart | Darwin

Other Formats:

Comma delimited format used in spreadsheet applications
http://www.bom.gov.au/fwo/IDS60901/IDS60901.94672.axf

JavaScript Object Notation format (JSON) in row-major order
http://www.bom.gov.au/fwo/IDS60901/IDS60901.94672.json